createdAt,value
2023-05-04T00:00:18.224Z,9.42
2023-05-04T00:02:48.890Z,9.26
2023-05-04T00:05:17.387Z,9.34
2023-05-04T00:07:47.408Z,9.11
2023-05-04T00:10:17.426Z,9.11
2023-05-04T00:12:47.216Z,8.97
2023-05-04T00:15:16.197Z,9.10
2023-05-04T00:17:46.429Z,9.05
2023-05-04T00:20:15.870Z,9.13
2023-05-04T00:22:45.944Z,8.92
2023-05-04T00:25:15.647Z,8.69
2023-05-04T00:27:46.930Z,8.96
2023-05-04T00:30:16.340Z,9.18
2023-05-04T00:32:46.042Z,9.40
2023-05-04T00:35:15.855Z,9.12
2023-05-04T00:37:47.779Z,9.47
2023-05-04T00:40:17.500Z,9.14
2023-05-04T00:42:49.310Z,9.02
2023-05-04T00:48:07.883Z,9.28
2023-05-04T00:50:56.943Z,9.62
2023-05-04T00:53:25.820Z,9.54
2023-05-04T00:55:54.568Z,9.48
2023-05-04T00:58:25.256Z,9.43
2023-05-04T01:00:54.204Z,9.53
2023-05-04T01:03:23.662Z,9.78
2023-05-04T01:05:59.892Z,10.04
2023-05-04T01:08:33.311Z,9.50
2023-05-04T01:11:04.782Z,9.82
2023-05-04T01:13:35.711Z,9.57
2023-05-04T01:16:06.307Z,9.65
2023-05-04T01:18:34.995Z,9.63
2023-05-04T01:21:03.874Z,9.80
2023-05-04T01:23:33.168Z,9.31
2023-05-04T01:26:14.936Z,9.92
2023-05-04T01:29:01.200Z,9.89
2023-05-04T01:31:31.354Z,9.64
2023-05-04T01:34:00.427Z,9.47
2023-05-04T01:36:30.283Z,9.73
2023-05-04T01:39:00.513Z,9.82
2023-05-04T01:41:30.662Z,9.57
2023-05-04T01:43:59.711Z,9.56
2023-05-04T01:46:29.257Z,9.52
2023-05-04T01:48:58.499Z,9.39
2023-05-04T01:51:27.476Z,9.46
2023-05-04T01:53:56.647Z,9.73
2023-05-04T01:56:25.362Z,9.51
2023-05-04T01:58:54.563Z,9.26
2023-05-04T02:01:23.825Z,9.55
2023-05-04T02:03:53.758Z,9.48
2023-05-04T02:06:22.646Z,9.68
2023-05-04T02:08:51.840Z,9.51
2023-05-04T02:11:22.632Z,9.46
2023-05-04T02:13:55.867Z,9.69
2023-05-04T02:16:25.460Z,9.63
2023-05-04T02:18:54.270Z,9.55
2023-05-04T02:21:23.394Z,9.78
2023-05-04T02:23:52.827Z,9.83
2023-05-04T02:26:21.644Z,9.83
2023-05-04T02:28:50.799Z,9.62
2023-05-04T02:31:19.950Z,9.79
2023-05-04T02:33:52.338Z,9.66
2023-05-04T02:36:22.023Z,9.65
2023-05-04T02:38:51.857Z,9.78
2023-05-04T02:41:21.453Z,9.63
2023-05-04T02:43:50.695Z,9.76
2023-05-04T02:46:21.128Z,9.90
2023-05-04T02:48:49.451Z,9.83
2023-05-04T02:51:19.357Z,10.00
2023-05-04T02:53:48.963Z,9.51
2023-05-04T02:56:17.486Z,9.46
2023-05-04T02:58:47.901Z,9.43
2023-05-04T03:01:17.536Z,9.51
2023-05-04T03:03:48.392Z,9.57
2023-05-04T03:06:18.153Z,9.53
2023-05-04T03:08:47.998Z,10.08
2023-05-04T03:11:18.647Z,10.06
2023-05-04T03:13:47.779Z,9.91
2023-05-04T03:16:18.539Z,9.93
2023-05-04T03:21:34.912Z,10.00
2023-05-04T03:24:07.180Z,9.92
2023-05-04T03:26:35.510Z,9.57
2023-05-04T03:29:05.264Z,9.57
2023-05-04T03:31:34.000Z,9.80
2023-05-04T03:34:02.785Z,10.10
2023-05-04T03:36:31.895Z,10.15
2023-05-04T03:39:01.277Z,10.16
2023-05-04T03:41:31.461Z,10.16
2023-05-04T03:44:01.561Z,10.27
2023-05-04T03:46:30.094Z,9.99
2023-05-04T03:48:58.912Z,10.21
2023-05-04T03:51:27.891Z,10.06
2023-05-04T03:53:57.403Z,10.17
2023-05-04T03:56:28.094Z,10.19
2023-05-04T03:58:59.156Z,10.43
2023-05-04T04:01:31.757Z,10.23
2023-05-04T04:04:01.705Z,9.77
2023-05-04T04:06:30.672Z,10.12
2023-05-04T04:08:59.815Z,9.84
2023-05-04T04:11:29.192Z,9.98
2023-05-04T04:13:57.404Z,10.21
2023-05-04T04:16:27.145Z,9.82
2023-05-04T04:18:55.355Z,9.92
2023-05-04T04:21:23.564Z,10.04
2023-05-04T04:23:53.183Z,10.20
2023-05-04T04:26:22.750Z,9.99
2023-05-04T04:28:51.745Z,9.84
2023-05-04T04:31:21.567Z,9.98
2023-05-04T04:33:53.713Z,10.58
2023-05-04T04:36:23.393Z,10.23
2023-05-04T04:38:51.829Z,10.12
2023-05-04T04:41:21.641Z,10.10
2023-05-04T04:43:50.646Z,10.08
2023-05-04T04:46:20.125Z,10.39
2023-05-04T04:48:50.123Z,10.20
2023-05-04T04:51:19.169Z,10.50
2023-05-04T04:53:49.097Z,10.40
2023-05-04T04:56:19.194Z,10.40
2023-05-04T04:58:47.985Z,10.77
2023-05-04T05:01:18.822Z,10.71
2023-05-04T05:03:50.006Z,10.10
2023-05-04T05:06:19.390Z,10.28
2023-05-04T05:08:49.480Z,9.96
2023-05-04T05:11:18.470Z,10.68
2023-05-04T05:13:49.480Z,10.78
2023-05-04T05:16:18.224Z,10.56
2023-05-04T05:18:48.349Z,10.42
2023-05-04T05:21:17.884Z,10.57
2023-05-04T05:23:47.641Z,10.23
2023-05-04T05:26:17.835Z,10.34
2023-05-04T05:28:47.880Z,10.20
2023-05-04T05:31:18.032Z,10.34
2023-05-04T05:33:48.022Z,10.44
2023-05-04T05:36:19.480Z,10.47
2023-05-04T05:38:50.512Z,10.20
2023-05-04T05:41:19.430Z,10.13
2023-05-04T05:43:48.712Z,10.08
2023-05-04T05:46:19.107Z,10.14
2023-05-04T05:48:48.141Z,10.66
2023-05-04T05:51:17.463Z,10.80
2023-05-04T05:53:47.076Z,10.80
2023-05-04T05:56:18.015Z,10.76
2023-05-04T05:58:48.324Z,10.64
2023-05-04T06:01:18.344Z,10.62
2023-05-04T06:03:49.268Z,10.34
2023-05-04T06:06:18.377Z,10.38
2023-05-04T06:08:48.583Z,10.79
2023-05-04T06:11:18.664Z,10.74
2023-05-04T06:13:47.906Z,10.46
2023-05-04T06:16:18.487Z,10.12
2023-05-04T06:18:47.893Z,10.15
2023-05-04T06:21:17.630Z,10.47
2023-05-04T06:23:48.816Z,10.12
2023-05-04T06:26:20.247Z,10.56
2023-05-04T06:28:49.717Z,10.47
2023-05-04T06:31:18.983Z,10.46
2023-05-04T06:33:47.880Z,10.35
2023-05-04T06:36:18.989Z,10.33
2023-05-04T06:38:47.967Z,10.58
2023-05-04T06:41:17.867Z,10.74
2023-05-04T06:43:47.979Z,10.70
2023-05-04T06:46:18.441Z,10.48
2023-05-04T06:48:47.809Z,10.65
2023-05-04T06:51:17.526Z,10.25
2023-05-04T06:53:47.175Z,10.44
2023-05-04T06:56:18.131Z,10.60
2023-05-04T06:58:47.484Z,10.60
2023-05-04T07:01:18.413Z,10.95
2023-05-04T07:03:47.740Z,10.71
2023-05-04T07:06:17.845Z,10.35
2023-05-04T07:08:47.392Z,10.61
2023-05-04T07:11:17.890Z,10.19
2023-05-04T07:13:47.555Z,10.68
2023-05-04T07:16:17.698Z,10.30
2023-05-04T07:18:48.429Z,11.06
2023-05-04T07:21:27.676Z,11.17
2023-05-04T07:23:57.631Z,11.06
2023-05-04T07:26:26.875Z,10.87
2023-05-04T07:28:55.844Z,11.06
2023-05-04T07:31:25.394Z,11.32
2023-05-04T07:33:54.042Z,10.83
2023-05-04T07:36:25.634Z,10.50
2023-05-04T07:38:54.844Z,10.83
2023-05-04T07:41:23.751Z,10.68
2023-05-04T07:43:54.056Z,10.36
2023-05-04T07:46:22.991Z,10.58
2023-05-04T07:48:52.092Z,10.19
2023-05-04T07:51:21.788Z,10.67
2023-05-04T07:53:50.946Z,10.52
2023-05-04T07:56:19.338Z,10.34
2023-05-04T07:58:48.202Z,10.36
2023-05-04T08:01:17.857Z,10.34
2023-05-04T08:03:47.349Z,10.70
2023-05-04T08:06:16.977Z,10.86
2023-05-04T08:08:46.361Z,10.79
2023-05-04T08:11:20.385Z,10.88
2023-05-04T08:13:50.895Z,10.53
2023-05-04T08:16:19.935Z,10.57
2023-05-04T08:18:51.379Z,10.38
2023-05-04T08:21:25.131Z,10.42
2023-05-04T08:23:54.326Z,10.70
2023-05-04T08:26:23.963Z,11.19
2023-05-04T08:28:53.944Z,10.75
2023-05-04T08:31:23.328Z,10.79
2023-05-04T08:33:52.506Z,11.10
2023-05-04T08:36:21.801Z,10.96
2023-05-04T08:38:51.206Z,11.09
2023-05-04T08:41:20.447Z,11.31
2023-05-04T08:43:50.751Z,11.02
2023-05-04T08:46:19.397Z,10.33
2023-05-04T08:48:49.685Z,10.57
2023-05-04T08:51:20.074Z,10.54
2023-05-04T08:53:53.486Z,10.59
2023-05-04T08:56:24.203Z,10.54
2023-05-04T08:58:54.660Z,10.27
2023-05-04T09:01:23.859Z,10.59
2023-05-04T09:03:53.982Z,10.26
2023-05-04T09:06:23.177Z,10.75
2023-05-04T09:08:51.692Z,10.94
2023-05-04T09:11:20.264Z,10.72
2023-05-04T09:13:49.604Z,10.81
2023-05-04T09:16:18.751Z,10.92
2023-05-04T09:18:47.909Z,10.98
2023-05-04T09:21:17.785Z,10.99
2023-05-04T09:23:50.061Z,10.83
2023-05-04T09:26:30.943Z,11.10
2023-05-04T09:29:15.180Z,10.99
2023-05-04T09:31:50.731Z,11.12
2023-05-04T09:34:23.533Z,10.50
2023-05-04T09:37:02.874Z,10.94
2023-05-04T09:39:31.688Z,10.37
2023-05-04T09:42:01.693Z,10.32
2023-05-04T09:44:30.835Z,9.98
2023-05-04T09:47:00.105Z,10.49
2023-05-04T09:49:33.798Z,10.36
2023-05-04T09:52:06.016Z,10.40
2023-05-04T09:54:36.912Z,10.36
2023-05-04T09:57:17.794Z,10.63
2023-05-04T09:59:48.193Z,10.54
2023-05-04T10:02:23.026Z,10.61
2023-05-04T10:04:52.864Z,9.95
2023-05-04T10:07:22.176Z,10.19
2023-05-04T10:09:52.003Z,10.42
2023-05-04T10:12:20.294Z,10.44
2023-05-04T10:14:49.565Z,10.69
2023-05-04T10:17:35.784Z,10.69
2023-05-04T10:20:05.540Z,10.17
2023-05-04T10:23:10.285Z,10.55
2023-05-04T10:26:07.216Z,10.38
2023-05-04T10:28:47.579Z,10.22
2023-05-04T10:31:18.847Z,10.57
2023-05-04T10:33:48.416Z,10.72
2023-05-04T10:36:17.842Z,10.58
2023-05-04T10:38:48.253Z,10.53
2023-05-04T10:41:19.260Z,10.78
2023-05-04T10:43:54.111Z,11.27
2023-05-04T10:46:23.248Z,10.59
2023-05-04T10:48:52.041Z,10.75
2023-05-04T10:51:25.277Z,10.50
2023-05-04T10:53:58.185Z,10.86
2023-05-04T10:56:29.288Z,10.78
2023-05-04T10:59:08.808Z,10.93
2023-05-04T11:01:48.295Z,11.04
2023-05-04T11:04:24.194Z,10.63
2023-05-04T11:07:06.858Z,10.72
2023-05-04T11:09:43.340Z,10.73
2023-05-04T11:12:17.752Z,10.71
2023-05-04T11:14:47.027Z,10.53
2023-05-04T11:19:52.082Z,10.22
2023-05-04T11:22:21.493Z,10.65
2023-05-04T11:24:52.856Z,10.65
2023-05-04T11:27:24.120Z,10.50
2023-05-04T11:30:02.159Z,10.88
2023-05-04T11:32:47.792Z,10.75
2023-05-04T11:35:23.286Z,10.93
2023-05-04T11:37:52.229Z,10.84
2023-05-04T11:40:24.480Z,10.67
2023-05-04T11:42:58.089Z,10.72
2023-05-04T11:45:38.261Z,10.92
2023-05-04T11:48:08.764Z,10.63
2023-05-04T11:50:40.080Z,10.02
2023-05-04T11:53:11.938Z,10.23
2023-05-04T11:55:44.122Z,10.06
2023-05-04T11:58:17.890Z,9.85
2023-05-04T12:00:50.838Z,10.18
2023-05-04T12:03:51.959Z,10.03
2023-05-04T12:06:33.990Z,10.09
2023-05-04T12:09:07.960Z,10.26
2023-05-04T12:11:39.197Z,9.93
2023-05-04T12:14:20.387Z,10.43
2023-05-04T12:16:58.777Z,10.23
2023-05-04T12:19:28.277Z,10.15
2023-05-04T12:21:59.848Z,10.25
2023-05-04T12:24:29.596Z,10.37
2023-05-04T12:26:59.701Z,10.28
2023-05-04T12:29:29.080Z,9.92
2023-05-04T12:31:59.205Z,10.21
2023-05-04T12:34:28.403Z,9.97
2023-05-04T12:37:00.067Z,9.97
2023-05-04T12:39:31.517Z,10.02
2023-05-04T12:42:02.473Z,10.37
2023-05-04T12:44:32.203Z,9.75
2023-05-04T12:47:02.521Z,9.89
2023-05-04T12:49:31.459Z,10.01
2023-05-04T12:52:00.539Z,10.11
2023-05-04T12:54:29.833Z,10.40
2023-05-04T12:56:59.389Z,10.46
2023-05-04T12:59:29.943Z,10.27
2023-05-04T13:02:00.519Z,10.38
2023-05-04T13:04:31.176Z,9.78
2023-05-04T13:07:00.307Z,10.18
2023-05-04T13:09:30.002Z,10.18
2023-05-04T13:11:58.938Z,10.45
2023-05-04T13:14:30.469Z,10.47
2023-05-04T13:16:59.824Z,10.38
2023-05-04T13:19:28.963Z,10.12
2023-05-04T13:21:58.325Z,10.68
2023-05-04T13:24:28.048Z,9.93
2023-05-04T13:26:58.072Z,9.74
2023-05-04T13:29:28.242Z,10.19
2023-05-04T13:31:59.936Z,10.29
2023-05-04T13:34:30.074Z,10.12
2023-05-04T13:36:59.949Z,9.58
2023-05-04T13:39:30.106Z,9.96
2023-05-04T13:41:59.473Z,9.57
2023-05-04T13:44:28.997Z,9.81
2023-05-04T13:46:58.649Z,9.50
2023-05-04T13:49:29.735Z,10.07
2023-05-04T13:51:59.503Z,9.95
2023-05-04T13:54:29.059Z,9.46
2023-05-04T13:56:58.627Z,9.83
2023-05-04T13:59:30.526Z,9.37
2023-05-04T14:02:02.465Z,9.61
2023-05-04T14:04:32.222Z,9.66
2023-05-04T14:07:02.195Z,9.95
2023-05-04T14:09:31.575Z,10.07
2023-05-04T14:12:02.413Z,9.51
2023-05-04T14:14:32.055Z,10.11
2023-05-04T14:17:02.267Z,9.80
2023-05-04T14:19:31.497Z,10.26
2023-05-04T14:21:59.988Z,9.26
2023-05-04T14:24:31.416Z,9.22
2023-05-04T14:27:00.303Z,9.76
2023-05-04T14:29:30.837Z,9.38
2023-05-04T14:32:00.832Z,9.92
2023-05-04T14:34:31.029Z,9.87
2023-05-04T14:37:00.815Z,9.76
2023-05-04T14:39:30.955Z,9.50
2023-05-04T14:42:00.684Z,9.69
2023-05-04T14:44:31.178Z,9.45
2023-05-04T14:47:00.349Z,9.82
2023-05-04T14:52:04.963Z,9.68
2023-05-04T14:54:35.160Z,9.64
2023-05-04T14:57:05.135Z,9.59
2023-05-04T14:59:41.597Z,9.65
2023-05-04T15:02:14.906Z,9.44
2023-05-04T15:04:49.716Z,9.59
2023-05-04T15:07:30.127Z,9.32
2023-05-04T15:10:02.533Z,9.06
2023-05-04T15:12:57.014Z,9.52
2023-05-04T15:16:00.226Z,9.10
2023-05-04T15:18:30.399Z,9.19
2023-05-04T15:21:00.578Z,9.27
2023-05-04T15:23:30.587Z,9.51
2023-05-04T15:25:59.798Z,9.81
2023-05-04T15:28:28.729Z,9.65
2023-05-04T15:30:58.889Z,10.08
2023-05-04T15:33:31.488Z,9.61
2023-05-04T15:36:11.724Z,9.38
2023-05-04T15:38:42.654Z,9.70
2023-05-04T15:41:16.567Z,9.63
2023-05-04T15:43:49.860Z,9.90
2023-05-04T15:46:19.832Z,9.80
2023-05-04T15:48:50.861Z,9.55
2023-05-04T15:51:20.051Z,9.50
2023-05-04T15:53:50.926Z,9.68
2023-05-04T15:56:20.335Z,8.89
2023-05-04T15:58:51.100Z,8.61
2023-05-04T16:01:20.335Z,8.81
2023-05-04T16:03:50.776Z,9.01
2023-05-04T16:06:21.640Z,9.12
2023-05-04T16:08:51.854Z,9.07
2023-05-04T16:11:20.656Z,9.32
2023-05-04T16:13:50.897Z,9.49
2023-05-04T16:16:20.188Z,9.06
2023-05-04T16:18:49.018Z,9.05
2023-05-04T16:21:18.742Z,8.95
2023-05-04T16:23:48.856Z,8.91
2023-05-04T16:26:19.276Z,9.38
2023-05-04T16:28:49.616Z,9.25
2023-05-04T16:31:18.449Z,9.07
2023-05-04T16:33:48.657Z,9.35
2023-05-04T16:36:18.630Z,9.25
2023-05-04T16:38:49.967Z,9.12
2023-05-04T16:41:20.253Z,9.36
2023-05-04T16:43:51.360Z,9.06
2023-05-04T16:46:20.598Z,9.38
2023-05-04T16:48:50.577Z,9.36
2023-05-04T16:51:19.974Z,9.60
2023-05-04T16:53:50.119Z,9.10
2023-05-04T16:56:19.979Z,9.12
2023-05-04T16:58:48.845Z,9.29
2023-05-04T17:01:19.505Z,9.15
2023-05-04T17:03:48.847Z,9.46
2023-05-04T17:06:18.638Z,9.07
2023-05-04T17:08:49.666Z,8.67
2023-05-04T17:11:18.847Z,9.10
2023-05-04T17:13:49.341Z,8.98
2023-05-04T17:16:20.237Z,9.09
2023-05-04T17:18:50.232Z,8.97
2023-05-04T17:21:19.068Z,8.94
2023-05-04T17:23:48.519Z,8.93
2023-05-04T17:26:18.211Z,9.05
2023-05-04T17:28:49.940Z,9.01
2023-05-04T17:31:19.425Z,8.92
2023-05-04T17:33:49.093Z,8.54
2023-05-04T17:36:19.609Z,8.51
2023-05-04T17:38:48.867Z,8.64
2023-05-04T17:41:18.939Z,8.37
2023-05-04T17:43:51.673Z,8.38
2023-05-04T17:46:21.396Z,8.47
2023-05-04T17:48:54.420Z,8.37
2023-05-04T17:51:24.621Z,8.35
2023-05-04T17:53:54.862Z,8.41
2023-05-04T17:56:24.827Z,8.33
2023-05-04T17:58:54.410Z,8.75
2023-05-04T18:01:23.961Z,8.75
2023-05-04T18:03:55.278Z,8.57
2023-05-04T18:06:25.333Z,8.51
2023-05-04T18:08:56.567Z,8.50
2023-05-04T18:11:27.240Z,9.01
2023-05-04T18:13:57.911Z,8.69
2023-05-04T18:16:27.568Z,8.73
2023-05-04T18:18:58.347Z,8.64
2023-05-04T18:21:28.334Z,8.60
2023-05-04T18:23:58.006Z,8.61
2023-05-04T18:26:26.928Z,8.64
2023-05-04T18:29:01.499Z,8.76
2023-05-04T18:31:36.697Z,9.15
2023-05-04T18:34:07.518Z,8.80
2023-05-04T18:36:39.062Z,8.81
2023-05-04T18:39:09.540Z,9.00
2023-05-04T18:41:39.305Z,8.74
2023-05-04T18:44:19.072Z,8.83
2023-05-04T18:46:48.322Z,8.85
2023-05-04T18:49:18.820Z,8.84
2023-05-04T18:51:49.305Z,8.75
2023-05-04T18:54:20.190Z,8.45
2023-05-04T18:56:49.800Z,8.56
2023-05-04T18:59:18.505Z,8.68
2023-05-04T19:01:52.524Z,8.71
2023-05-04T19:04:22.308Z,8.55
2023-05-04T19:06:54.979Z,8.57
2023-05-04T19:09:25.053Z,8.42
2023-05-04T19:11:55.350Z,8.61
2023-05-04T19:14:27.700Z,8.76
2023-05-04T19:17:03.489Z,8.52
2023-05-04T19:19:38.125Z,8.47
2023-05-04T19:22:07.705Z,7.06
2023-05-04T19:24:39.331Z,8.19
2023-05-04T19:27:08.893Z,8.42
2023-05-04T19:29:41.762Z,7.90
2023-05-04T19:32:22.925Z,8.27
2023-05-04T19:34:54.681Z,8.41
2023-05-04T19:37:24.464Z,8.23
2023-05-04T19:39:53.348Z,8.46
2023-05-04T19:42:24.448Z,8.70
2023-05-04T19:44:54.517Z,8.60
2023-05-04T19:47:25.085Z,8.37
2023-05-04T19:49:55.689Z,8.85
2023-05-04T19:52:24.616Z,8.51
2023-05-04T19:54:55.379Z,8.52
2023-05-04T19:57:25.898Z,8.35
2023-05-04T19:59:56.176Z,8.50
2023-05-04T20:02:26.201Z,8.23
2023-05-04T20:04:56.494Z,8.45
2023-05-04T20:07:26.501Z,8.59
2023-05-04T20:09:56.336Z,8.56
2023-05-04T20:12:27.965Z,8.25
2023-05-04T20:14:56.881Z,8.19
2023-05-04T20:17:27.510Z,8.22
2023-05-04T20:19:57.283Z,8.15
2023-05-04T20:22:27.925Z,8.62
2023-05-04T20:24:58.579Z,8.33
2023-05-04T20:27:27.735Z,8.53
2023-05-04T20:29:56.585Z,8.75
2023-05-04T20:32:28.674Z,8.35
2023-05-04T20:34:58.634Z,8.14
2023-05-04T20:37:28.189Z,8.56
2023-05-04T20:39:59.479Z,8.56
2023-05-04T20:42:28.121Z,8.95
2023-05-04T20:44:57.910Z,8.41
2023-05-04T20:47:29.646Z,8.59
2023-05-04T20:49:58.626Z,8.43
2023-05-04T20:52:28.399Z,8.34
2023-05-04T20:54:57.502Z,7.82
2023-05-04T20:57:26.666Z,7.94
2023-05-04T20:59:57.066Z,8.28
2023-05-04T21:02:27.877Z,8.31
2023-05-04T21:04:57.988Z,8.39
2023-05-04T21:07:27.767Z,7.94
2023-05-04T21:10:00.912Z,8.20
2023-05-04T21:12:32.948Z,8.27
2023-05-04T21:15:04.534Z,8.23
2023-05-04T21:17:35.351Z,8.02
2023-05-04T21:20:05.949Z,7.85
2023-05-04T21:22:35.358Z,7.85
2023-05-04T21:25:07.297Z,8.26
2023-05-04T21:27:39.232Z,8.26
2023-05-04T21:30:10.910Z,8.49
2023-05-04T21:32:41.321Z,8.15
2023-05-04T21:35:12.799Z,7.87
2023-05-04T21:37:46.048Z,8.21
2023-05-04T21:40:18.042Z,8.47
2023-05-04T21:42:48.449Z,8.59
2023-05-04T21:45:20.097Z,8.61
2023-05-04T21:47:51.626Z,8.77
2023-05-04T21:50:21.115Z,8.95
2023-05-04T21:52:52.026Z,8.72
2023-05-04T21:55:24.035Z,9.09
2023-05-04T21:57:52.463Z,8.50
2023-05-04T22:00:22.891Z,8.30
2023-05-04T22:02:56.644Z,8.58
2023-05-04T22:05:26.574Z,8.52
2023-05-04T22:07:56.268Z,8.72
2023-05-04T22:10:26.535Z,8.45
2023-05-04T22:12:56.397Z,8.27
2023-05-04T22:15:34.334Z,8.02
2023-05-04T22:18:10.252Z,8.36
2023-05-04T22:20:39.652Z,8.07
2023-05-04T22:23:08.219Z,8.63
2023-05-04T22:25:38.313Z,8.25
2023-05-04T22:28:07.952Z,8.50
2023-05-04T22:30:36.918Z,8.66
2023-05-04T22:33:08.207Z,7.97
2023-05-04T22:35:39.072Z,8.35
2023-05-04T22:38:27.962Z,8.43
2023-05-04T22:41:35.371Z,8.45
2023-05-04T22:44:11.334Z,8.44
2023-05-04T22:46:58.901Z,8.54
2023-05-04T22:49:50.270Z,8.63
2023-05-04T22:52:32.475Z,9.14
2023-05-04T22:59:00.652Z,8.83
2023-05-04T23:01:36.752Z,8.78
2023-05-04T23:04:18.290Z,9.17
2023-05-04T23:07:02.670Z,9.13
2023-05-04T23:09:55.826Z,8.26
2023-05-04T23:13:12.851Z,8.35
2023-05-04T23:16:07.211Z,8.00
2023-05-04T23:18:58.311Z,8.64
2023-05-04T23:22:09.748Z,8.38
2023-05-04T23:26:07.080Z,7.71
2023-05-04T23:31:41.290Z,8.93
2023-05-04T23:34:59.927Z,8.39
2023-05-04T23:37:56.053Z,8.51
2023-05-04T23:40:40.055Z,8.70
2023-05-04T23:43:59.060Z,8.38
2023-05-04T23:46:37.525Z,8.84
2023-05-04T23:49:31.477Z,8.64
2023-05-04T23:55:35.350Z,8.19
2023-05-04T23:58:08.359Z,8.83
